sensor_id;sensor_type;location;lat;lon;timestamp;P1;durP1;ratioP1;P2;durP2;ratioP2
65315;SDS011;51920;53.952;10.292;2023-04-23T00:01:05;8.82;;;6.45;;
65315;SDS011;51920;53.952;10.292;2023-04-23T00:03:34;9.07;;;6.55;;
65315;SDS011;51920;53.952;10.292;2023-04-23T00:06:03;10.25;;;7.07;;
65315;SDS011;51920;53.952;10.292;2023-04-23T00:08:33;9.50;;;6.68;;
65315;SDS011;51920;53.952;10.292;2023-04-23T00:11:00;8.80;;;6.87;;
65315;SDS011;51920;53.952;10.292;2023-04-23T00:13:27;8.95;;;7.10;;
65315;SDS011;51920;53.952;10.292;2023-04-23T00:15:54;9.48;;;6.85;;
65315;SDS011;51920;53.952;10.292;2023-04-23T00:18:21;8.07;;;6.88;;
65315;SDS011;51920;53.952;10.292;2023-04-23T00:20:48;10.55;;;7.18;;
65315;SDS011;51920;53.952;10.292;2023-04-23T00:23:14;9.93;;;6.93;;
65315;SDS011;51920;53.952;10.292;2023-04-23T00:25:41;11.88;;;7.47;;
65315;SDS011;51920;53.952;10.292;2023-04-23T00:28:07;11.10;;;7.38;;
65315;SDS011;51920;53.952;10.292;2023-04-23T00:30:34;8.73;;;6.78;;
65315;SDS011;51920;53.952;10.292;2023-04-23T00:33:01;10.25;;;7.38;;
65315;SDS011;51920;53.952;10.292;2023-04-23T00:35:28;9.70;;;7.00;;
65315;SDS011;51920;53.952;10.292;2023-04-23T00:37:54;9.45;;;7.35;;
65315;SDS011;51920;53.952;10.292;2023-04-23T00:40:21;10.25;;;7.47;;
65315;SDS011;51920;53.952;10.292;2023-04-23T00:42:49;9.52;;;7.22;;
65315;SDS011;51920;53.952;10.292;2023-04-23T00:45:19;11.70;;;7.53;;
65315;SDS011;51920;53.952;10.292;2023-04-23T00:47:46;10.23;;;7.60;;
65315;SDS011;51920;53.952;10.292;2023-04-23T00:50:13;8.43;;;6.50;;
65315;SDS011;51920;53.952;10.292;2023-04-23T00:52:40;11.38;;;7.65;;
65315;SDS011;51920;53.952;10.292;2023-04-23T00:55:07;10.00;;;7.50;;
65315;SDS011;51920;53.952;10.292;2023-04-23T00:57:34;9.77;;;7.05;;
65315;SDS011;51920;53.952;10.292;2023-04-23T01:00:04;9.60;;;7.40;;
65315;SDS011;51920;53.952;10.292;2023-04-23T01:02:33;11.88;;;8.18;;
65315;SDS011;51920;53.952;10.292;2023-04-23T01:05:03;11.93;;;7.53;;
65315;SDS011;51920;53.952;10.292;2023-04-23T01:07:32;9.88;;;7.35;;
65315;SDS011;51920;53.952;10.292;2023-04-23T01:10:02;11.68;;;8.60;;
65315;SDS011;51920;53.952;10.292;2023-04-23T01:12:30;11.77;;;8.13;;
65315;SDS011;51920;53.952;10.292;2023-04-23T01:14:57;13.07;;;8.70;;
65315;SDS011;51920;53.952;10.292;2023-04-23T01:17:24;12.13;;;8.77;;
65315;SDS011;51920;53.952;10.292;2023-04-23T01:19:52;13.77;;;9.18;;
65315;SDS011;51920;53.952;10.292;2023-04-23T01:22:18;13.43;;;9.38;;
65315;SDS011;51920;53.952;10.292;2023-04-23T01:24:46;15.47;;;9.67;;
65315;SDS011;51920;53.952;10.292;2023-04-23T01:27:13;15.35;;;9.05;;
65315;SDS011;51920;53.952;10.292;2023-04-23T01:29:41;15.02;;;9.80;;
65315;SDS011;51920;53.952;10.292;2023-04-23T01:32:08;13.98;;;9.70;;
65315;SDS011;51920;53.952;10.292;2023-04-23T01:34:36;14.23;;;9.45;;
65315;SDS011;51920;53.952;10.292;2023-04-23T01:37:03;13.50;;;8.60;;
65315;SDS011;51920;53.952;10.292;2023-04-23T01:39:30;15.18;;;9.60;;
65315;SDS011;51920;53.952;10.292;2023-04-23T01:41:57;13.07;;;9.38;;
65315;SDS011;51920;53.952;10.292;2023-04-23T01:44:24;14.98;;;9.88;;
65315;SDS011;51920;53.952;10.292;2023-04-23T01:46:51;14.55;;;10.02;;
65315;SDS011;51920;53.952;10.292;2023-04-23T01:49:18;16.93;;;10.07;;
65315;SDS011;51920;53.952;10.292;2023-04-23T01:51:45;16.80;;;10.00;;
65315;SDS011;51920;53.952;10.292;2023-04-23T01:54:12;15.00;;;10.30;;
65315;SDS011;51920;53.952;10.292;2023-04-23T01:56:38;14.57;;;9.73;;
65315;SDS011;51920;53.952;10.292;2023-04-23T01:59:05;16.05;;;10.32;;
65315;SDS011;51920;53.952;10.292;2023-04-23T02:01:43;15.17;;;10.40;;
65315;SDS011;51920;53.952;10.292;2023-04-23T02:04:11;14.70;;;9.82;;
65315;SDS011;51920;53.952;10.292;2023-04-23T02:06:39;16.75;;;10.55;;
65315;SDS011;51920;53.952;10.292;2023-04-23T02:09:07;16.73;;;10.63;;
65315;SDS011;51920;53.952;10.292;2023-04-23T02:11:34;17.02;;;10.80;;
65315;SDS011;51920;53.952;10.292;2023-04-23T02:14:01;15.97;;;10.53;;
65315;SDS011;51920;53.952;10.292;2023-04-23T02:16:28;15.00;;;10.07;;
65315;SDS011;51920;53.952;10.292;2023-04-23T02:18:56;16.35;;;10.63;;
65315;SDS011;51920;53.952;10.292;2023-04-23T02:21:25;15.40;;;10.13;;
65315;SDS011;51920;53.952;10.292;2023-04-23T02:23:54;16.38;;;10.75;;
65315;SDS011;51920;53.952;10.292;2023-04-23T02:26:21;13.70;;;9.20;;
65315;SDS011;51920;53.952;10.292;2023-04-23T02:28:49;15.20;;;10.23;;
65315;SDS011;51920;53.952;10.292;2023-04-23T02:31:16;14.40;;;10.32;;
65315;SDS011;51920;53.952;10.292;2023-04-23T02:33:43;15.00;;;9.93;;
65315;SDS011;51920;53.952;10.292;2023-04-23T02:36:11;17.85;;;11.48;;
65315;SDS011;51920;53.952;10.292;2023-04-23T02:38:37;17.87;;;11.80;;
65315;SDS011;51920;53.952;10.292;2023-04-23T02:41:07;20.08;;;12.55;;
65315;SDS011;51920;53.952;10.292;2023-04-23T02:43:34;21.80;;;13.00;;
65315;SDS011;51920;53.952;10.292;2023-04-23T02:46:01;27.50;;;16.05;;
65315;SDS011;51920;53.952;10.292;2023-04-23T02:48:36;30.30;;;16.92;;
65315;SDS011;51920;53.952;10.292;2023-04-23T02:51:04;30.57;;;17.40;;
65315;SDS011;51920;53.952;10.292;2023-04-23T02:53:31;33.65;;;18.77;;
65315;SDS011;51920;53.952;10.292;2023-04-23T02:55:58;36.42;;;20.27;;
65315;SDS011;51920;53.952;10.292;2023-04-23T02:58:27;39.15;;;20.63;;
65315;SDS011;51920;53.952;10.292;2023-04-23T03:00:56;41.95;;;20.75;;
65315;SDS011;51920;53.952;10.292;2023-04-23T03:03:23;39.53;;;20.83;;
65315;SDS011;51920;53.952;10.292;2023-04-23T03:05:51;47.33;;;22.88;;
65315;SDS011;51920;53.952;10.292;2023-04-23T03:08:18;50.30;;;25.00;;
65315;SDS011;51920;53.952;10.292;2023-04-23T03:10:45;51.22;;;25.35;;
65315;SDS011;51920;53.952;10.292;2023-04-23T03:13:11;51.17;;;25.38;;
65315;SDS011;51920;53.952;10.292;2023-04-23T03:15:39;53.20;;;25.47;;
65315;SDS011;51920;53.952;10.292;2023-04-23T03:18:06;50.83;;;24.92;;
65315;SDS011;51920;53.952;10.292;2023-04-23T03:20:34;55.90;;;27.00;;
65315;SDS011;51920;53.952;10.292;2023-04-23T03:23:01;58.67;;;27.15;;
65315;SDS011;51920;53.952;10.292;2023-04-23T03:25:28;55.85;;;27.15;;
65315;SDS011;51920;53.952;10.292;2023-04-23T03:27:55;57.17;;;27.30;;
65315;SDS011;51920;53.952;10.292;2023-04-23T03:30:22;60.28;;;26.73;;
65315;SDS011;51920;53.952;10.292;2023-04-23T03:32:49;60.53;;;28.05;;
65315;SDS011;51920;53.952;10.292;2023-04-23T03:35:16;60.25;;;29.23;;
65315;SDS011;51920;53.952;10.292;2023-04-23T03:37:46;56.38;;;26.55;;
65315;SDS011;51920;53.952;10.292;2023-04-23T03:40:13;48.40;;;24.53;;
65315;SDS011;51920;53.952;10.292;2023-04-23T03:42:41;50.42;;;24.65;;
65315;SDS011;51920;53.952;10.292;2023-04-23T03:45:11;47.10;;;23.60;;
65315;SDS011;51920;53.952;10.292;2023-04-23T03:47:38;46.03;;;22.05;;
65315;SDS011;51920;53.952;10.292;2023-04-23T03:50:06;47.42;;;21.90;;
65315;SDS011;51920;53.952;10.292;2023-04-23T03:52:34;44.67;;;21.23;;
65315;SDS011;51920;53.952;10.292;2023-04-23T03:55:01;44.95;;;20.55;;
65315;SDS011;51920;53.952;10.292;2023-04-23T03:57:33;39.90;;;19.70;;
65315;SDS011;51920;53.952;10.292;2023-04-23T04:00:17;39.70;;;19.27;;
65315;SDS011;51920;53.952;10.292;2023-04-23T04:02:44;37.85;;;17.98;;
65315;SDS011;51920;53.952;10.292;2023-04-23T04:05:11;32.87;;;17.07;;
65315;SDS011;51920;53.952;10.292;2023-04-23T04:07:38;33.88;;;17.23;;
65315;SDS011;51920;53.952;10.292;2023-04-23T04:10:05;34.65;;;17.27;;
65315;SDS011;51920;53.952;10.292;2023-04-23T04:12:32;29.73;;;15.05;;
65315;SDS011;51920;53.952;10.292;2023-04-23T04:14:59;33.20;;;15.38;;
65315;SDS011;51920;53.952;10.292;2023-04-23T04:17:28;24.07;;;13.03;;
65315;SDS011;51920;53.952;10.292;2023-04-23T04:19:54;27.55;;;13.55;;
65315;SDS011;51920;53.952;10.292;2023-04-23T04:22:21;29.45;;;14.55;;
65315;SDS011;51920;53.952;10.292;2023-04-23T04:24:47;29.23;;;13.25;;
65315;SDS011;51920;53.952;10.292;2023-04-23T04:27:17;26.33;;;13.07;;
65315;SDS011;51920;53.952;10.292;2023-04-23T04:29:43;27.40;;;13.20;;
65315;SDS011;51920;53.952;10.292;2023-04-23T04:32:10;23.10;;;11.73;;
65315;SDS011;51920;53.952;10.292;2023-04-23T04:34:38;21.98;;;10.48;;
65315;SDS011;51920;53.952;10.292;2023-04-23T04:37:05;21.85;;;10.85;;
65315;SDS011;51920;53.952;10.292;2023-04-23T04:39:32;22.52;;;10.45;;
65315;SDS011;51920;53.952;10.292;2023-04-23T04:41:59;18.47;;;10.20;;
65315;SDS011;51920;53.952;10.292;2023-04-23T04:44:28;21.25;;;9.73;;
65315;SDS011;51920;53.952;10.292;2023-04-23T04:46:55;19.27;;;9.50;;
65315;SDS011;51920;53.952;10.292;2023-04-23T04:49:22;18.83;;;8.35;;
65315;SDS011;51920;53.952;10.292;2023-04-23T04:51:49;13.90;;;8.02;;
65315;SDS011;51920;53.952;10.292;2023-04-23T04:54:16;15.23;;;7.53;;
65315;SDS011;51920;53.952;10.292;2023-04-23T04:56:43;13.43;;;7.80;;
65315;SDS011;51920;53.952;10.292;2023-04-23T04:59:09;13.38;;;7.25;;
65315;SDS011;51920;53.952;10.292;2023-04-23T05:01:36;13.70;;;7.38;;
65315;SDS011;51920;53.952;10.292;2023-04-23T05:04:03;12.68;;;7.25;;
65315;SDS011;51920;53.952;10.292;2023-04-23T05:06:29;12.80;;;6.57;;
65315;SDS011;51920;53.952;10.292;2023-04-23T05:08:57;13.98;;;7.25;;
65315;SDS011;51920;53.952;10.292;2023-04-23T05:11:24;11.88;;;6.38;;
65315;SDS011;51920;53.952;10.292;2023-04-23T05:13:50;13.13;;;6.50;;
65315;SDS011;51920;53.952;10.292;2023-04-23T05:16:17;10.73;;;5.95;;
65315;SDS011;51920;53.952;10.292;2023-04-23T05:18:44;9.93;;;5.50;;
65315;SDS011;51920;53.952;10.292;2023-04-23T05:21:11;8.77;;;5.60;;
65315;SDS011;51920;53.952;10.292;2023-04-23T05:23:38;10.98;;;5.50;;
65315;SDS011;51920;53.952;10.292;2023-04-23T05:26:04;9.07;;;5.50;;
65315;SDS011;51920;53.952;10.292;2023-04-23T05:28:31;10.82;;;6.07;;
65315;SDS011;51920;53.952;10.292;2023-04-23T05:30:57;10.40;;;5.90;;
65315;SDS011;51920;53.952;10.292;2023-04-23T05:33:24;9.98;;;5.85;;
65315;SDS011;51920;53.952;10.292;2023-04-23T05:35:52;10.40;;;5.57;;
65315;SDS011;51920;53.952;10.292;2023-04-23T05:38:19;10.85;;;5.50;;
65315;SDS011;51920;53.952;10.292;2023-04-23T05:40:46;9.40;;;5.30;;
65315;SDS011;51920;53.952;10.292;2023-04-23T05:43:12;9.57;;;5.27;;
65315;SDS011;51920;53.952;10.292;2023-04-23T05:45:39;8.35;;;5.45;;
65315;SDS011;51920;53.952;10.292;2023-04-23T05:48:06;9.52;;;5.60;;
65315;SDS011;51920;53.952;10.292;2023-04-23T05:50:32;9.68;;;5.60;;
65315;SDS011;51920;53.952;10.292;2023-04-23T05:52:59;9.63;;;5.03;;
65315;SDS011;51920;53.952;10.292;2023-04-23T05:55:25;9.93;;;4.80;;
65315;SDS011;51920;53.952;10.292;2023-04-23T05:57:52;8.70;;;5.05;;
65315;SDS011;51920;53.952;10.292;2023-04-23T06:00:18;7.55;;;5.05;;
65315;SDS011;51920;53.952;10.292;2023-04-23T06:02:45;8.00;;;4.90;;
65315;SDS011;51920;53.952;10.292;2023-04-23T06:05:13;7.35;;;5.05;;
65315;SDS011;51920;53.952;10.292;2023-04-23T06:07:39;9.77;;;5.10;;
65315;SDS011;51920;53.952;10.292;2023-04-23T06:10:08;7.85;;;5.00;;
65315;SDS011;51920;53.952;10.292;2023-04-23T06:12:35;7.25;;;5.10;;
65315;SDS011;51920;53.952;10.292;2023-04-23T06:15:05;9.85;;;5.80;;
65315;SDS011;51920;53.952;10.292;2023-04-23T06:17:33;10.35;;;5.60;;
65315;SDS011;51920;53.952;10.292;2023-04-23T06:20:00;10.70;;;5.57;;
65315;SDS011;51920;53.952;10.292;2023-04-23T06:22:30;10.00;;;5.70;;
65315;SDS011;51920;53.952;10.292;2023-04-23T06:24:57;8.38;;;5.78;;
65315;SDS011;51920;53.952;10.292;2023-04-23T06:27:24;10.82;;;5.93;;
65315;SDS011;51920;53.952;10.292;2023-04-23T06:29:55;9.98;;;5.72;;
65315;SDS011;51920;53.952;10.292;2023-04-23T06:32:22;10.10;;;5.90;;
65315;SDS011;51920;53.952;10.292;2023-04-23T06:34:48;8.18;;;5.35;;
65315;SDS011;51920;53.952;10.292;2023-04-23T06:37:18;7.93;;;5.57;;
65315;SDS011;51920;53.952;10.292;2023-04-23T06:39:45;10.13;;;5.50;;
65315;SDS011;51920;53.952;10.292;2023-04-23T06:42:12;8.15;;;5.30;;
65315;SDS011;51920;53.952;10.292;2023-04-23T06:44:50;10.07;;;5.47;;
65315;SDS011;51920;53.952;10.292;2023-04-23T06:47:17;11.50;;;5.60;;
65315;SDS011;51920;53.952;10.292;2023-04-23T06:49:44;9.40;;;5.30;;
65315;SDS011;51920;53.952;10.292;2023-04-23T06:52:11;8.32;;;5.15;;
65315;SDS011;51920;53.952;10.292;2023-04-23T06:54:37;9.95;;;5.50;;
65315;SDS011;51920;53.952;10.292;2023-04-23T06:57:04;9.43;;;5.17;;
65315;SDS011;51920;53.952;10.292;2023-04-23T06:59:31;9.15;;;5.60;;
65315;SDS011;51920;53.952;10.292;2023-04-23T07:01:58;9.18;;;5.95;;
65315;SDS011;51920;53.952;10.292;2023-04-23T07:04:24;10.88;;;5.97;;
65315;SDS011;51920;53.952;10.292;2023-04-23T07:06:51;8.32;;;5.45;;
65315;SDS011;51920;53.952;10.292;2023-04-23T07:09:18;7.83;;;5.27;;
65315;SDS011;51920;53.952;10.292;2023-04-23T07:11:45;7.65;;;5.32;;
65315;SDS011;51920;53.952;10.292;2023-04-23T07:14:11;8.05;;;5.18;;
65315;SDS011;51920;53.952;10.292;2023-04-23T07:16:38;6.88;;;4.95;;
65315;SDS011;51920;53.952;10.292;2023-04-23T07:19:04;8.68;;;5.20;;
65315;SDS011;51920;53.952;10.292;2023-04-23T07:21:31;8.70;;;5.20;;
65315;SDS011;51920;53.952;10.292;2023-04-23T07:23:58;9.75;;;5.00;;
65315;SDS011;51920;53.952;10.292;2023-04-23T07:26:32;9.13;;;5.32;;
65315;SDS011;51920;53.952;10.292;2023-04-23T07:29:18;8.45;;;5.25;;
65315;SDS011;51920;53.952;10.292;2023-04-23T07:31:45;8.77;;;5.40;;
65315;SDS011;51920;53.952;10.292;2023-04-23T07:34:12;8.27;;;5.37;;
65315;SDS011;51920;53.952;10.292;2023-04-23T07:36:38;8.68;;;5.80;;
65315;SDS011;51920;53.952;10.292;2023-04-23T07:39:05;9.88;;;5.80;;
65315;SDS011;51920;53.952;10.292;2023-04-23T07:41:31;9.50;;;5.95;;
65315;SDS011;51920;53.952;10.292;2023-04-23T07:43:58;9.60;;;6.15;;
65315;SDS011;51920;53.952;10.292;2023-04-23T07:46:25;10.73;;;6.60;;
65315;SDS011;51920;53.952;10.292;2023-04-23T07:48:51;11.43;;;7.18;;
65315;SDS011;51920;53.952;10.292;2023-04-23T07:51:18;11.27;;;7.35;;
65315;SDS011;51920;53.952;10.292;2023-04-23T07:53:45;9.48;;;6.07;;
65315;SDS011;51920;53.952;10.292;2023-04-23T07:56:12;13.13;;;7.28;;
65315;SDS011;51920;53.952;10.292;2023-04-23T07:58:39;11.67;;;6.60;;
65315;SDS011;51920;53.952;10.292;2023-04-23T08:01:06;11.40;;;6.78;;
65315;SDS011;51920;53.952;10.292;2023-04-23T08:03:32;13.48;;;7.57;;
65315;SDS011;51920;53.952;10.292;2023-04-23T08:05:59;11.73;;;7.57;;
65315;SDS011;51920;53.952;10.292;2023-04-23T08:08:26;11.73;;;7.35;;
65315;SDS011;51920;53.952;10.292;2023-04-23T08:10:52;11.47;;;7.77;;
65315;SDS011;51920;53.952;10.292;2023-04-23T08:13:19;10.88;;;7.32;;
65315;SDS011;51920;53.952;10.292;2023-04-23T08:15:45;11.73;;;7.25;;
65315;SDS011;51920;53.952;10.292;2023-04-23T08:18:12;11.15;;;7.53;;
65315;SDS011;51920;53.952;10.292;2023-04-23T08:20:38;11.55;;;7.57;;
65315;SDS011;51920;53.952;10.292;2023-04-23T08:23:05;11.13;;;6.87;;
65315;SDS011;51920;53.952;10.292;2023-04-23T08:25:32;12.27;;;7.00;;
65315;SDS011;51920;53.952;10.292;2023-04-23T08:27:58;12.27;;;7.25;;
65315;SDS011;51920;53.952;10.292;2023-04-23T08:30:26;11.32;;;7.18;;
65315;SDS011;51920;53.952;10.292;2023-04-23T08:32:53;10.07;;;6.90;;
65315;SDS011;51920;53.952;10.292;2023-04-23T08:35:19;10.13;;;6.60;;
65315;SDS011;51920;53.952;10.292;2023-04-23T08:37:47;10.88;;;6.85;;
65315;SDS011;51920;53.952;10.292;2023-04-23T08:40:14;12.50;;;6.93;;
65315;SDS011;51920;53.952;10.292;2023-04-23T08:42:43;11.93;;;6.78;;
65315;SDS011;51920;53.952;10.292;2023-04-23T08:45:14;10.23;;;6.65;;
65315;SDS011;51920;53.952;10.292;2023-04-23T08:47:41;11.40;;;7.07;;
65315;SDS011;51920;53.952;10.292;2023-04-23T08:50:09;11.40;;;6.15;;
65315;SDS011;51920;53.952;10.292;2023-04-23T08:52:39;9.90;;;6.13;;
65315;SDS011;51920;53.952;10.292;2023-04-23T08:55:13;10.25;;;6.07;;
65315;SDS011;51920;53.952;10.292;2023-04-23T08:57:41;9.82;;;6.47;;
65315;SDS011;51920;53.952;10.292;2023-04-23T09:00:08;9.00;;;5.87;;
65315;SDS011;51920;53.952;10.292;2023-04-23T09:02:38;9.25;;;5.93;;
65315;SDS011;51920;53.952;10.292;2023-04-23T09:05:06;10.40;;;6.22;;
65315;SDS011;51920;53.952;10.292;2023-04-23T09:07:35;8.07;;;5.85;;
65315;SDS011;51920;53.952;10.292;2023-04-23T09:10:03;9.45;;;6.22;;
65315;SDS011;51920;53.952;10.292;2023-04-23T09:12:34;10.63;;;6.20;;
65315;SDS011;51920;53.952;10.292;2023-04-23T09:15:02;10.55;;;6.55;;
65315;SDS011;51920;53.952;10.292;2023-04-23T09:17:41;10.77;;;6.10;;
65315;SDS011;51920;53.952;10.292;2023-04-23T09:20:09;9.27;;;6.10;;
65315;SDS011;51920;53.952;10.292;2023-04-23T09:22:47;8.93;;;6.15;;
65315;SDS011;51920;53.952;10.292;2023-04-23T09:25:16;8.93;;;5.87;;
65315;SDS011;51920;53.952;10.292;2023-04-23T09:27:44;10.27;;;6.10;;
65315;SDS011;51920;53.952;10.292;2023-04-23T09:30:12;9.45;;;6.45;;
65315;SDS011;51920;53.952;10.292;2023-04-23T09:32:40;9.38;;;6.20;;
65315;SDS011;51920;53.952;10.292;2023-04-23T09:35:09;9.20;;;6.30;;
65315;SDS011;51920;53.952;10.292;2023-04-23T09:37:42;9.63;;;6.07;;
65315;SDS011;51920;53.952;10.292;2023-04-23T09:40:14;8.85;;;6.15;;
65315;SDS011;51920;53.952;10.292;2023-04-23T09:42:46;12.10;;;6.80;;
65315;SDS011;51920;53.952;10.292;2023-04-23T09:45:15;8.80;;;5.80;;
65315;SDS011;51920;53.952;10.292;2023-04-23T09:47:52;9.30;;;6.32;;
65315;SDS011;51920;53.952;10.292;2023-04-23T09:52:59;9.32;;;5.80;;
65315;SDS011;51920;53.952;10.292;2023-04-23T09:55:26;10.55;;;6.50;;
65315;SDS011;51920;53.952;10.292;2023-04-23T09:58:02;10.85;;;6.30;;
65315;SDS011;51920;53.952;10.292;2023-04-23T10:00:34;10.48;;;5.90;;
65315;SDS011;51920;53.952;10.292;2023-04-23T10:03:02;11.77;;;6.40;;
65315;SDS011;51920;53.952;10.292;2023-04-23T10:05:32;9.82;;;6.15;;
65315;SDS011;51920;53.952;10.292;2023-04-23T10:08:06;10.30;;;6.35;;
65315;SDS011;51920;53.952;10.292;2023-04-23T10:10:33;11.25;;;6.50;;
65315;SDS011;51920;53.952;10.292;2023-04-23T10:13:03;7.85;;;6.25;;
65315;SDS011;51920;53.952;10.292;2023-04-23T10:15:30;9.43;;;5.97;;
65315;SDS011;51920;53.952;10.292;2023-04-23T10:17:59;9.75;;;6.10;;
65315;SDS011;51920;53.952;10.292;2023-04-23T10:20:26;10.30;;;6.43;;
65315;SDS011;51920;53.952;10.292;2023-04-23T10:22:53;7.85;;;5.40;;
65315;SDS011;51920;53.952;10.292;2023-04-23T10:25:22;8.30;;;6.10;;
65315;SDS011;51920;53.952;10.292;2023-04-23T10:27:50;8.83;;;5.80;;
65315;SDS011;51920;53.952;10.292;2023-04-23T10:30:20;9.13;;;5.82;;
65315;SDS011;51920;53.952;10.292;2023-04-23T10:32:49;9.63;;;6.13;;
65315;SDS011;51920;53.952;10.292;2023-04-23T10:35:16;8.85;;;5.95;;
65315;SDS011;51920;53.952;10.292;2023-04-23T10:37:43;8.88;;;5.90;;
65315;SDS011;51920;53.952;10.292;2023-04-23T10:40:13;9.83;;;6.60;;
65315;SDS011;51920;53.952;10.292;2023-04-23T10:42:42;11.07;;;6.95;;
65315;SDS011;51920;53.952;10.292;2023-04-23T10:45:17;9.07;;;6.72;;
65315;SDS011;51920;53.952;10.292;2023-04-23T10:47:49;9.45;;;5.80;;
65315;SDS011;51920;53.952;10.292;2023-04-23T10:50:19;9.05;;;6.43;;
65315;SDS011;51920;53.952;10.292;2023-04-23T10:52:48;8.90;;;6.40;;
65315;SDS011;51920;53.952;10.292;2023-04-23T10:55:28;10.55;;;7.03;;
65315;SDS011;51920;53.952;10.292;2023-04-23T10:58:01;10.77;;;6.20;;
65315;SDS011;51920;53.952;10.292;2023-04-23T11:00:41;10.10;;;6.90;;
65315;SDS011;51920;53.952;10.292;2023-04-23T11:06:08;9.47;;;6.77;;
65315;SDS011;51920;53.952;10.292;2023-04-23T11:08:41;9.35;;;6.57;;
65315;SDS011;51920;53.952;10.292;2023-04-23T11:11:17;10.40;;;6.97;;
65315;SDS011;51920;53.952;10.292;2023-04-23T11:13:50;9.35;;;6.70;;
65315;SDS011;51920;53.952;10.292;2023-04-23T11:16:22;10.05;;;6.95;;
65315;SDS011;51920;53.952;10.292;2023-04-23T11:18:56;10.57;;;6.90;;
65315;SDS011;51920;53.952;10.292;2023-04-23T11:26:55;9.52;;;6.03;;
65315;SDS011;51920;53.952;10.292;2023-04-23T11:29:23;9.00;;;6.57;;
65315;SDS011;51920;53.952;10.292;2023-04-23T11:31:51;7.83;;;6.40;;
65315;SDS011;51920;53.952;10.292;2023-04-23T11:34:27;9.65;;;6.90;;
65315;SDS011;51920;53.952;10.292;2023-04-23T11:36:54;10.88;;;6.90;;
65315;SDS011;51920;53.952;10.292;2023-04-23T11:39:24;9.00;;;5.95;;
65315;SDS011;51920;53.952;10.292;2023-04-23T11:41:52;9.23;;;6.55;;
65315;SDS011;51920;53.952;10.292;2023-04-23T11:44:20;7.77;;;5.87;;
65315;SDS011;51920;53.952;10.292;2023-04-23T11:46:47;9.35;;;5.90;;
65315;SDS011;51920;53.952;10.292;2023-04-23T11:49:15;7.35;;;5.85;;
65315;SDS011;51920;53.952;10.292;2023-04-23T11:51:44;9.38;;;6.03;;
65315;SDS011;51920;53.952;10.292;2023-04-23T11:54:12;7.93;;;5.47;;
65315;SDS011;51920;53.952;10.292;2023-04-23T11:56:40;7.03;;;5.37;;
65315;SDS011;51920;53.952;10.292;2023-04-23T11:59:07;7.50;;;5.88;;
65315;SDS011;51920;53.952;10.292;2023-04-23T12:01:41;7.25;;;5.43;;
65315;SDS011;51920;53.952;10.292;2023-04-23T12:04:25;6.25;;;5.28;;
65315;SDS011;51920;53.952;10.292;2023-04-23T12:06:53;8.07;;;5.80;;
65315;SDS011;51920;53.952;10.292;2023-04-23T12:09:22;8.97;;;5.97;;
65315;SDS011;51920;53.952;10.292;2023-04-23T12:11:50;8.32;;;5.40;;
65315;SDS011;51920;53.952;10.292;2023-04-23T12:14:18;7.45;;;5.55;;
65315;SDS011;51920;53.952;10.292;2023-04-23T12:16:49;8.25;;;5.80;;
65315;SDS011;51920;53.952;10.292;2023-04-23T12:19:19;8.27;;;5.82;;
65315;SDS011;51920;53.952;10.292;2023-04-23T12:21:59;8.30;;;5.70;;
65315;SDS011;51920;53.952;10.292;2023-04-23T12:24:30;8.00;;;5.72;;
65315;SDS011;51920;53.952;10.292;2023-04-23T12:27:12;7.85;;;5.63;;
65315;SDS011;51920;53.952;10.292;2023-04-23T12:29:41;9.10;;;5.90;;
65315;SDS011;51920;53.952;10.292;2023-04-23T12:32:09;7.63;;;6.10;;
65315;SDS011;51920;53.952;10.292;2023-04-23T12:34:37;9.03;;;6.03;;
65315;SDS011;51920;53.952;10.292;2023-04-23T12:37:22;8.07;;;5.70;;
65315;SDS011;51920;53.952;10.292;2023-04-23T12:39:52;7.72;;;5.80;;
65315;SDS011;51920;53.952;10.292;2023-04-23T12:42:21;7.93;;;5.88;;
65315;SDS011;51920;53.952;10.292;2023-04-23T12:44:48;8.18;;;6.30;;
65315;SDS011;51920;53.952;10.292;2023-04-23T12:47:16;9.10;;;5.70;;
65315;SDS011;51920;53.952;10.292;2023-04-23T12:49:47;8.52;;;6.15;;
65315;SDS011;51920;53.952;10.292;2023-04-23T12:52:18;8.32;;;5.82;;
65315;SDS011;51920;53.952;10.292;2023-04-23T12:54:46;8.35;;;5.93;;
65315;SDS011;51920;53.952;10.292;2023-04-23T12:57:15;8.10;;;5.88;;
65315;SDS011;51920;53.952;10.292;2023-04-23T12:59:42;7.80;;;5.70;;
65315;SDS011;51920;53.952;10.292;2023-04-23T13:02:09;11.25;;;6.05;;
65315;SDS011;51920;53.952;10.292;2023-04-23T13:04:36;8.50;;;6.68;;
65315;SDS011;51920;53.952;10.292;2023-04-23T13:07:03;8.20;;;6.18;;
65315;SDS011;51920;53.952;10.292;2023-04-23T13:09:29;9.02;;;5.82;;
65315;SDS011;51920;53.952;10.292;2023-04-23T13:11:56;10.23;;;6.90;;
65315;SDS011;51920;53.952;10.292;2023-04-23T13:14:25;9.43;;;6.63;;
65315;SDS011;51920;53.952;10.292;2023-04-23T13:16:52;8.52;;;6.40;;
65315;SDS011;51920;53.952;10.292;2023-04-23T13:19:19;7.90;;;6.30;;
65315;SDS011;51920;53.952;10.292;2023-04-23T13:21:46;9.20;;;6.60;;
65315;SDS011;51920;53.952;10.292;2023-04-23T13:24:12;8.93;;;6.90;;
65315;SDS011;51920;53.952;10.292;2023-04-23T13:26:39;9.30;;;6.70;;
65315;SDS011;51920;53.952;10.292;2023-04-23T13:29:06;8.40;;;6.20;;
65315;SDS011;51920;53.952;10.292;2023-04-23T13:31:33;8.63;;;6.35;;
65315;SDS011;51920;53.952;10.292;2023-04-23T13:33:59;8.55;;;6.55;;
65315;SDS011;51920;53.952;10.292;2023-04-23T13:36:28;8.80;;;6.20;;
65315;SDS011;51920;53.952;10.292;2023-04-23T13:38:55;8.02;;;6.22;;
65315;SDS011;51920;53.952;10.292;2023-04-23T13:41:22;9.10;;;6.22;;
65315;SDS011;51920;53.952;10.292;2023-04-23T13:43:48;8.13;;;6.10;;
65315;SDS011;51920;53.952;10.292;2023-04-23T13:46:15;8.77;;;6.20;;
65315;SDS011;51920;53.952;10.292;2023-04-23T13:48:42;9.13;;;6.70;;
65315;SDS011;51920;53.952;10.292;2023-04-23T13:51:09;9.35;;;7.10;;
65315;SDS011;51920;53.952;10.292;2023-04-23T13:53:42;10.60;;;7.15;;
65315;SDS011;51920;53.952;10.292;2023-04-23T13:56:09;9.38;;;6.75;;
65315;SDS011;51920;53.952;10.292;2023-04-23T13:58:35;9.40;;;6.50;;
65315;SDS011;51920;53.952;10.292;2023-04-23T14:01:03;9.20;;;6.43;;
65315;SDS011;51920;53.952;10.292;2023-04-23T14:03:29;10.48;;;6.95;;
65315;SDS011;51920;53.952;10.292;2023-04-23T14:05:56;12.00;;;7.03;;
65315;SDS011;51920;53.952;10.292;2023-04-23T14:08:23;8.80;;;6.45;;
65315;SDS011;51920;53.952;10.292;2023-04-23T14:10:50;8.88;;;6.85;;
65315;SDS011;51920;53.952;10.292;2023-04-23T14:13:17;9.80;;;6.90;;
65315;SDS011;51920;53.952;10.292;2023-04-23T14:15:44;8.02;;;6.15;;
65315;SDS011;51920;53.952;10.292;2023-04-23T14:18:11;7.78;;;5.90;;
65315;SDS011;51920;53.952;10.292;2023-04-23T14:20:38;8.20;;;6.75;;
65315;SDS011;51920;53.952;10.292;2023-04-23T14:31:56;8.55;;;6.72;;
65315;SDS011;51920;53.952;10.292;2023-04-23T14:34:22;8.60;;;6.18;;
65315;SDS011;51920;53.952;10.292;2023-04-23T14:36:49;8.18;;;6.38;;
65315;SDS011;51920;53.952;10.292;2023-04-23T14:39:18;8.60;;;6.20;;
65315;SDS011;51920;53.952;10.292;2023-04-23T14:41:44;8.13;;;5.85;;
65315;SDS011;51920;53.952;10.292;2023-04-23T14:44:11;7.25;;;5.53;;
65315;SDS011;51920;53.952;10.292;2023-04-23T14:46:38;6.93;;;5.18;;
65315;SDS011;51920;53.952;10.292;2023-04-23T14:49:05;7.97;;;5.53;;
65315;SDS011;51920;53.952;10.292;2023-04-23T14:51:31;7.43;;;5.80;;